sensor_id;sensor_type;location;lat;lon;timestamp;pressure;altitude;pressure_sealevel;temperature;humidity
80333;BME280;69652;51.864;-2.246;2023-10-19T00:00:40;98229.69;;;12.94;100.00
80333;BME280;69652;51.864;-2.246;2023-10-19T00:03:10;98234.78;;;12.99;100.00
80333;BME280;69652;51.864;-2.246;2023-10-19T00:05:37;98234.41;;;13.00;100.00
80333;BME280;69652;51.864;-2.246;2023-10-19T00:08:04;98230.13;;;13.03;100.00
80333;BME280;69652;51.864;-2.246;2023-10-19T00:10:31;98243.41;;;13.08;100.00
80333;BME280;69652;51.864;-2.246;2023-10-19T00:13:03;98250.06;;;13.14;100.00
80333;BME280;69652;51.864;-2.246;2023-10-19T00:15:34;98246.19;;;13.15;100.00
80333;BME280;69652;51.864;-2.246;2023-10-19T00:18:03;98255.97;;;13.20;100.00
80333;BME280;69652;51.864;-2.246;2023-10-19T00:20:47;98250.13;;;13.25;100.00
80333;BME280;69652;51.864;-2.246;2023-10-19T00:23:18;98242.75;;;13.25;100.00
80333;BME280;69652;51.864;-2.246;2023-10-19T00:25:47;98251.28;;;13.24;99.99
80333;BME280;69652;51.864;-2.246;2023-10-19T00:28:18;98241.59;;;13.26;99.73
80333;BME280;69652;51.864;-2.246;2023-10-19T00:30:44;98257.16;;;13.26;99.67
80333;BME280;69652;51.864;-2.246;2023-10-19T00:33:11;98268.03;;;13.26;100.00
80333;BME280;69652;51.864;-2.246;2023-10-19T00:35:49;98257.16;;;13.26;99.28
80333;BME280;69652;51.864;-2.246;2023-10-19T00:38:37;98275.06;;;13.27;99.44
80333;BME280;69652;51.864;-2.246;2023-10-19T00:41:03;98265.72;;;13.28;97.94
80333;BME280;69652;51.864;-2.246;2023-10-19T00:43:35;98271.16;;;13.28;97.70
80333;BME280;69652;51.864;-2.246;2023-10-19T00:46:12;98290.22;;;13.24;96.67
80333;BME280;69652;51.864;-2.246;2023-10-19T00:48:49;98289.06;;;13.25;96.84
80333;BME280;69652;51.864;-2.246;2023-10-19T00:51:18;98279.72;;;13.26;95.52
80333;BME280;69652;51.864;-2.246;2023-10-19T00:54:27;98284.75;;;13.24;94.62
80333;BME280;69652;51.864;-2.246;2023-10-19T00:57:18;98278.13;;;13.22;94.55
80333;BME280;69652;51.864;-2.246;2023-10-19T00:59:58;98271.44;;;13.12;94.64
80333;BME280;69652;51.864;-2.246;2023-10-19T01:02:38;98268.34;;;13.14;94.41
80333;BME280;69652;51.864;-2.246;2023-10-19T01:05:10;98272.97;;;13.06;93.90
80333;BME280;69652;51.864;-2.246;2023-10-19T01:07:39;98285.78;;;13.06;94.53
80333;BME280;69652;51.864;-2.246;2023-10-19T01:10:06;98286.53;;;13.02;94.54
80333;BME280;69652;51.864;-2.246;2023-10-19T01:12:45;98285.38;;;13.03;94.52
80333;BME280;69652;51.864;-2.246;2023-10-19T01:15:15;98285.03;;;13.12;93.02
80333;BME280;69652;51.864;-2.246;2023-10-19T01:18:09;98284.31;;;13.15;93.21
80333;BME280;69652;51.864;-2.246;2023-10-19T01:20:39;98286.25;;;13.15;93.56
80333;BME280;69652;51.864;-2.246;2023-10-19T01:23:16;98276.09;;;13.12;93.55
80333;BME280;69652;51.864;-2.246;2023-10-19T01:25:55;98287.34;;;13.10;93.95
80333;BME280;69652;51.864;-2.246;2023-10-19T01:28:22;98275.72;;;13.10;94.71
80333;BME280;69652;51.864;-2.246;2023-10-19T01:30:51;98291.66;;;13.11;94.57
80333;BME280;69652;51.864;-2.246;2023-10-19T01:33:21;98291.28;;;13.13;93.54
80333;BME280;69652;51.864;-2.246;2023-10-19T01:35:48;98286.25;;;13.15;93.71
80333;BME280;69652;51.864;-2.246;2023-10-19T01:38:32;98275.78;;;13.17;93.50
80333;BME280;69652;51.864;-2.246;2023-10-19T01:41:03;98283.19;;;13.20;94.26
80333;BME280;69652;51.864;-2.246;2023-10-19T01:43:33;98276.59;;;13.21;94.45
80333;BME280;69652;51.864;-2.246;2023-10-19T01:46:00;98285.94;;;13.23;93.40
80333;BME280;69652;51.864;-2.246;2023-10-19T01:48:38;98281.25;;;13.24;94.14
80333;BME280;69652;51.864;-2.246;2023-10-19T01:51:06;98284.00;;;13.27;93.96
80333;BME280;69652;51.864;-2.246;2023-10-19T01:53:36;98279.75;;;13.30;94.01
80333;BME280;69652;51.864;-2.246;2023-10-19T01:56:04;98269.63;;;13.34;93.64
80333;BME280;69652;51.864;-2.246;2023-10-19T01:58:31;98277.44;;;13.32;94.31
80333;BME280;69652;51.864;-2.246;2023-10-19T02:01:02;98264.97;;;13.31;93.34
80333;BME280;69652;51.864;-2.246;2023-10-19T02:03:32;98273.16;;;13.31;94.08
80333;BME280;69652;51.864;-2.246;2023-10-19T02:06:01;98266.50;;;13.28;94.87
80333;BME280;69652;51.864;-2.246;2023-10-19T02:08:56;98269.22;;;13.28;95.49
80333;BME280;69652;51.864;-2.246;2023-10-19T02:11:23;98259.88;;;13.26;95.10
80333;BME280;69652;51.864;-2.246;2023-10-19T02:13:51;98264.91;;;13.24;96.61
80333;BME280;69652;51.864;-2.246;2023-10-19T02:16:17;98254.81;;;13.21;96.84
80333;BME280;69652;51.864;-2.246;2023-10-19T02:18:50;98250.84;;;13.15;97.67
80333;BME280;69652;51.864;-2.246;2023-10-19T02:21:16;98251.19;;;13.13;98.04
80333;BME280;69652;51.864;-2.246;2023-10-19T02:24:02;98254.78;;;13.17;98.33
80333;BME280;69652;51.864;-2.246;2023-10-19T02:26:29;98256.34;;;13.22;98.15
80333;BME280;69652;51.864;-2.246;2023-10-19T02:28:56;98264.53;;;13.25;98.81
80333;BME280;69652;51.864;-2.246;2023-10-19T02:31:23;98261.78;;;13.22;98.24
80333;BME280;69652;51.864;-2.246;2023-10-19T02:33:51;98247.78;;;13.23;98.77
80333;BME280;69652;51.864;-2.246;2023-10-19T02:36:20;98240.78;;;13.22;98.12
80333;BME280;69652;51.864;-2.246;2023-10-19T02:38:46;98235.34;;;13.26;97.72
80333;BME280;69652;51.864;-2.246;2023-10-19T02:41:16;98229.91;;;13.26;97.81
80333;BME280;69652;51.864;-2.246;2023-10-19T02:43:43;98220.56;;;13.27;97.06
80333;BME280;69652;51.864;-2.246;2023-10-19T02:46:16;98226.81;;;13.27;97.63
80333;BME280;69652;51.864;-2.246;2023-10-19T02:48:45;98226.81;;;13.27;97.40
80333;BME280;69652;51.864;-2.246;2023-10-19T02:51:12;98230.69;;;13.26;97.71
80333;BME280;69652;51.864;-2.246;2023-10-19T02:53:39;98218.22;;;13.25;97.42
80333;BME280;69652;51.864;-2.246;2023-10-19T02:56:12;98217.84;;;13.27;96.97
80333;BME280;69652;51.864;-2.246;2023-10-19T02:58:43;98201.53;;;13.30;98.54
80333;BME280;69652;51.864;-2.246;2023-10-19T03:03:42;98194.13;;;13.31;97.50
80333;BME280;69652;51.864;-2.246;2023-10-19T03:06:09;98196.50;;;13.32;98.18
80333;BME280;69652;51.864;-2.246;2023-10-19T03:08:35;98182.84;;;13.36;97.58
80333;BME280;69652;51.864;-2.246;2023-10-19T03:11:01;98183.25;;;13.38;97.42
80333;BME280;69652;51.864;-2.246;2023-10-19T03:13:29;98175.50;;;13.40;97.67
80333;BME280;69652;51.864;-2.246;2023-10-19T03:15:57;98180.56;;;13.42;98.66
80333;BME280;69652;51.864;-2.246;2023-10-19T03:18:22;98175.50;;;13.44;97.88
80333;BME280;69652;51.864;-2.246;2023-10-19T03:20:47;98175.88;;;13.46;97.89
80333;BME280;69652;51.864;-2.246;2023-10-19T03:23:16;98169.28;;;13.47;97.25
80333;BME280;69652;51.864;-2.246;2023-10-19T03:25:41;98163.81;;;13.47;97.52
80333;BME280;69652;51.864;-2.246;2023-10-19T03:28:30;98154.50;;;13.51;98.17
80333;BME280;69652;51.864;-2.246;2023-10-19T03:31:00;98158.41;;;13.54;98.40
80333;BME280;69652;51.864;-2.246;2023-10-19T03:33:25;98153.34;;;13.59;97.95
80333;BME280;69652;51.864;-2.246;2023-10-19T03:35:53;98154.53;;;13.65;97.74
80333;BME280;69652;51.864;-2.246;2023-10-19T03:38:19;98141.31;;;13.67;98.10
80333;BME280;69652;51.864;-2.246;2023-10-19T03:40:48;98137.44;;;13.76;98.62
80333;BME280;69652;51.864;-2.246;2023-10-19T03:43:20;98121.06;;;13.83;98.68
80333;BME280;69652;51.864;-2.246;2023-10-19T03:45:48;98124.19;;;13.81;98.17
80333;BME280;69652;51.864;-2.246;2023-10-19T03:48:19;98127.69;;;13.82;97.48
80333;BME280;69652;51.864;-2.246;2023-10-19T03:50:59;98121.47;;;13.88;98.90
80333;BME280;69652;51.864;-2.246;2023-10-19T03:53:27;98110.56;;;13.85;97.94
80333;BME280;69652;51.864;-2.246;2023-10-19T03:55:53;98109.75;;;13.81;97.94
80333;BME280;69652;51.864;-2.246;2023-10-19T03:58:20;98106.28;;;13.80;98.64
80333;BME280;69652;51.864;-2.246;2023-10-19T04:00:47;98097.69;;;13.82;98.30
80333;BME280;69652;51.864;-2.246;2023-10-19T04:03:15;98096.53;;;13.86;97.80
80333;BME280;69652;51.864;-2.246;2023-10-19T04:05:41;98097.72;;;13.99;99.00
80333;BME280;69652;51.864;-2.246;2023-10-19T04:08:07;98096.53;;;14.11;98.21
80333;BME280;69652;51.864;-2.246;2023-10-19T04:10:40;98094.59;;;14.19;98.25
80333;BME280;69652;51.864;-2.246;2023-10-19T04:13:10;98082.50;;;14.20;97.81
80333;BME280;69652;51.864;-2.246;2023-10-19T04:15:36;98084.06;;;14.28;98.21
80333;BME280;69652;51.864;-2.246;2023-10-19T04:18:03;98078.97;;;14.30;97.57
80333;BME280;69652;51.864;-2.246;2023-10-19T04:20:34;98075.88;;;14.28;96.95
80333;BME280;69652;51.864;-2.246;2023-10-19T04:23:14;98073.16;;;14.28;97.08
80333;BME280;69652;51.864;-2.246;2023-10-19T04:25:40;98071.22;;;14.25;97.85
80333;BME280;69652;51.864;-2.246;2023-10-19T04:28:06;98070.03;;;14.22;98.21
80333;BME280;69652;51.864;-2.246;2023-10-19T04:30:31;98063.41;;;14.23;97.72
80333;BME280;69652;51.864;-2.246;2023-10-19T04:32:58;98064.59;;;14.26;99.63
80333;BME280;69652;51.864;-2.246;2023-10-19T04:35:26;98060.69;;;14.27;98.30
80333;BME280;69652;51.864;-2.246;2023-10-19T04:37:55;98063.78;;;14.29;98.60
80333;BME280;69652;51.864;-2.246;2023-10-19T04:40:22;98050.16;;;14.25;98.70
80333;BME280;69652;51.864;-2.246;2023-10-19T04:42:50;98052.50;;;14.27;99.38
80333;BME280;69652;51.864;-2.246;2023-10-19T04:45:16;98047.81;;;14.24;98.97
80333;BME280;69652;51.864;-2.246;2023-10-19T04:47:41;98041.19;;;14.25;99.69
80333;BME280;69652;51.864;-2.246;2023-10-19T04:50:08;98033.41;;;14.27;100.00
80333;BME280;69652;51.864;-2.246;2023-10-19T04:52:36;98037.69;;;14.28;99.68
80333;BME280;69652;51.864;-2.246;2023-10-19T04:55:02;98034.16;;;14.31;99.73
80333;BME280;69652;51.864;-2.246;2023-10-19T04:57:28;98029.09;;;14.33;99.50
80333;BME280;69652;51.864;-2.246;2023-10-19T04:59:53;98028.31;;;14.32;100.00
80333;BME280;69652;51.864;-2.246;2023-10-19T05:02:19;98022.47;;;14.44;99.57
80333;BME280;69652;51.864;-2.246;2023-10-19T05:04:44;98015.84;;;14.49;100.00
80333;BME280;69652;51.864;-2.246;2023-10-19T05:07:14;98014.25;;;14.52;100.00
80333;BME280;69652;51.864;-2.246;2023-10-19T05:09:45;98022.81;;;14.57;98.88
80333;BME280;69652;51.864;-2.246;2023-10-19T05:12:11;98026.28;;;14.65;99.30
80333;BME280;69652;51.864;-2.246;2023-10-19T05:14:40;98017.31;;;14.71;98.81
80333;BME280;69652;51.864;-2.246;2023-10-19T05:17:07;98018.09;;;14.72;100.00
80333;BME280;69652;51.864;-2.246;2023-10-19T05:19:35;98022.38;;;14.73;98.88
80333;BME280;69652;51.864;-2.246;2023-10-19T05:22:02;98025.84;;;14.80;99.28
80333;BME280;69652;51.864;-2.246;2023-10-19T05:24:28;98026.63;;;14.81;98.42
80333;BME280;69652;51.864;-2.246;2023-10-19T05:26:55;98021.16;;;14.81;99.22
80333;BME280;69652;51.864;-2.246;2023-10-19T05:29:21;98023.13;;;14.80;99.27
80333;BME280;69652;51.864;-2.246;2023-10-19T05:31:46;98021.56;;;14.79;98.83
80333;BME280;69652;51.864;-2.246;2023-10-19T05:34:12;98021.94;;;14.78;98.91
80333;BME280;69652;51.864;-2.246;2023-10-19T05:36:38;98014.91;;;14.80;99.39
80333;BME280;69652;51.864;-2.246;2023-10-19T05:39:04;98009.47;;;14.80;98.08
80333;BME280;69652;51.864;-2.246;2023-10-19T05:41:33;98009.47;;;14.77;99.27
80333;BME280;69652;51.864;-2.246;2023-10-19T05:43:59;98011.78;;;14.82;99.19
80333;BME280;69652;51.864;-2.246;2023-10-19T05:46:24;98013.75;;;14.81;99.16
80333;BME280;69652;51.864;-2.246;2023-10-19T05:48:50;98013.38;;;14.79;99.32
80333;BME280;69652;51.864;-2.246;2023-10-19T05:51:16;98012.97;;;14.77;98.60
80333;BME280;69652;51.864;-2.246;2023-10-19T05:53:42;98007.13;;;14.79;99.58
80333;BME280;69652;51.864;-2.246;2023-10-19T05:56:10;98004.38;;;14.79;98.92
80333;BME280;69652;51.864;-2.246;2023-10-19T05:58:35;98011.41;;;14.76;99.11
80333;BME280;69652;51.864;-2.246;2023-10-19T06:01:01;98014.97;;;14.73;98.94
80333;BME280;69652;51.864;-2.246;2023-10-19T06:03:28;98008.72;;;14.73;98.77
80333;BME280;69652;51.864;-2.246;2023-10-19T06:05:53;98009.47;;;14.77;98.84
80333;BME280;69652;51.864;-2.246;2023-10-19T06:08:22;98011.03;;;14.78;98.73
80333;BME280;69652;51.864;-2.246;2023-10-19T06:10:54;98001.31;;;14.73;98.80
80333;BME280;69652;51.864;-2.246;2023-10-19T06:13:20;98011.41;;;14.76;99.04
80333;BME280;69652;51.864;-2.246;2023-10-19T06:15:48;98016.88;;;14.80;99.33
80333;BME280;69652;51.864;-2.246;2023-10-19T06:18:13;98016.81;;;14.87;98.92
80333;BME280;69652;51.864;-2.246;2023-10-19T06:20:45;98023.84;;;14.88;98.98
80333;BME280;69652;51.864;-2.246;2023-10-19T06:23:11;98025.00;;;14.98;98.25
80333;BME280;69652;51.864;-2.246;2023-10-19T06:25:38;98027.72;;;14.98;98.02
80333;BME280;69652;51.864;-2.246;2023-10-19T06:28:04;98028.91;;;14.93;98.28
80333;BME280;69652;51.864;-2.246;2023-10-19T06:30:31;98021.88;;;14.92;98.48
80333;BME280;69652;51.864;-2.246;2023-10-19T06:32:57;98025.78;;;14.95;98.40
80333;BME280;69652;51.864;-2.246;2023-10-19T06:35:27;98035.16;;;14.94;98.08
80333;BME280;69652;51.864;-2.246;2023-10-19T06:37:53;98037.16;;;14.86;98.32
80333;BME280;69652;51.864;-2.246;2023-10-19T06:40:22;98033.63;;;14.82;99.07
80333;BME280;69652;51.864;-2.246;2023-10-19T06:42:48;98039.88;;;14.79;98.49
80333;BME280;69652;51.864;-2.246;2023-10-19T06:45:15;98052.41;;;14.73;99.16
80333;BME280;69652;51.864;-2.246;2023-10-19T06:50:08;98046.94;;;14.73;98.32
80333;BME280;69652;51.864;-2.246;2023-10-19T06:52:36;98052.81;;;14.68;98.35
80333;BME280;69652;51.864;-2.246;2023-10-19T06:55:06;98045.78;;;14.70;99.03
80333;BME280;69652;51.864;-2.246;2023-10-19T06:57:41;98056.69;;;14.70;98.94
80333;BME280;69652;51.864;-2.246;2023-10-19T07:00:10;98049.28;;;14.71;98.13
80333;BME280;69652;51.864;-2.246;2023-10-19T07:02:40;98045.00;;;14.70;98.80
80333;BME280;69652;51.864;-2.246;2023-10-19T07:05:07;98044.63;;;14.68;98.46
80333;BME280;69652;51.864;-2.246;2023-10-19T07:07:36;98043.84;;;14.67;99.00
80333;BME280;69652;51.864;-2.246;2023-10-19T07:10:02;98051.63;;;14.72;98.49
80333;BME280;69652;51.864;-2.246;2023-10-19T07:12:29;98048.88;;;14.76;98.72
80333;BME280;69652;51.864;-2.246;2023-10-19T07:14:54;98043.81;;;14.74;98.53
80333;BME280;69652;51.864;-2.246;2023-10-19T07:17:19;98059.03;;;14.72;98.30
80333;BME280;69652;51.864;-2.246;2023-10-19T07:19:45;98042.66;;;14.72;98.69
80333;BME280;69652;51.864;-2.246;2023-10-19T07:22:14;98042.25;;;14.73;98.98
80333;BME280;69652;51.864;-2.246;2023-10-19T07:24:40;98043.81;;;14.74;98.67
80333;BME280;69652;51.864;-2.246;2023-10-19T07:27:06;98052.78;;;14.75;98.69
80333;BME280;69652;51.864;-2.246;2023-10-19T07:29:33;98053.94;;;14.85;98.78
80333;BME280;69652;51.864;-2.246;2023-10-19T07:32:02;98055.06;;;14.87;98.19
80333;BME280;69652;51.864;-2.246;2023-10-19T07:34:31;98049.59;;;14.87;97.61
80333;BME280;69652;51.864;-2.246;2023-10-19T07:36:58;98053.09;;;14.88;97.72
80333;BME280;69652;51.864;-2.246;2023-10-19T07:39:26;98055.44;;;14.89;98.53
80333;BME280;69652;51.864;-2.246;2023-10-19T07:41:55;98048.41;;;14.92;98.37
80333;BME280;69652;51.864;-2.246;2023-10-19T07:44:20;98053.09;;;14.95;98.49
80333;BME280;69652;51.864;-2.246;2023-10-19T07:46:46;98049.19;;;14.96;97.99
80333;BME280;69652;51.864;-2.246;2023-10-19T07:49:11;98059.72;;;14.97;97.24
80333;BME280;69652;51.864;-2.246;2023-10-19T07:51:44;98059.72;;;14.97;97.79
80333;BME280;69652;51.864;-2.246;2023-10-19T07:54:11;98061.25;;;15.02;97.03
80333;BME280;69652;51.864;-2.246;2023-10-19T07:56:37;98062.41;;;15.04;97.12
80333;BME280;69652;51.864;-2.246;2023-10-19T07:59:02;98056.94;;;15.08;96.41
80333;BME280;69652;51.864;-2.246;2023-10-19T08:01:28;98046.41;;;15.10;96.54
80333;BME280;69652;51.864;-2.246;2023-10-19T08:03:54;98055.34;;;15.14;96.85
80333;BME280;69652;51.864;-2.246;2023-10-19T08:06:20;98052.19;;;15.19;96.74
80333;BME280;69652;51.864;-2.246;2023-10-19T08:08:45;98044.41;;;15.17;96.14
80333;BME280;69652;51.864;-2.246;2023-10-19T08:11:11;98044.41;;;15.17;96.37
80333;BME280;69652;51.864;-2.246;2023-10-19T08:13:38;98038.16;;;15.17;96.41
80333;BME280;69652;51.864;-2.246;2023-10-19T08:16:05;98047.13;;;15.17;96.29
80333;BME280;69652;51.864;-2.246;2023-10-19T08:18:33;98047.91;;;15.22;96.60
80333;BME280;69652;51.864;-2.246;2023-10-19T08:21:01;98044.38;;;15.21;95.90
80333;BME280;69652;51.864;-2.246;2023-10-19T08:23:27;98035.81;;;15.19;95.77
80333;BME280;69652;51.864;-2.246;2023-10-19T08:25:53;98038.13;;;15.21;96.25
80333;BME280;69652;51.864;-2.246;2023-10-19T08:28:20;98038.13;;;15.21;95.70
80333;BME280;69652;51.864;-2.246;2023-10-19T08:30:46;98040.47;;;15.22;95.23
80333;BME280;69652;51.864;-2.246;2023-10-19T08:33:25;98033.41;;;15.25;95.28
80333;BME280;69652;51.864;-2.246;2023-10-19T08:35:54;98037.31;;;15.27;95.79
80333;BME280;69652;51.864;-2.246;2023-10-19T08:38:20;98044.31;;;15.32;95.37
80333;BME280;69652;51.864;-2.246;2023-10-19T08:40:47;98052.84;;;15.37;94.97
80333;BME280;69652;51.864;-2.246;2023-10-19T08:43:14;98057.09;;;15.49;94.90
80333;BME280;69652;51.864;-2.246;2023-10-19T08:45:43;98052.75;;;15.59;93.70
80333;BME280;69652;51.864;-2.246;2023-10-19T08:48:08;98041.78;;;15.66;92.75
80333;BME280;69652;51.864;-2.246;2023-10-19T08:50:34;98041.00;;;15.65;93.39
80333;BME280;69652;51.864;-2.246;2023-10-19T08:53:01;98051.50;;;15.70;93.11
80333;BME280;69652;51.864;-2.246;2023-10-19T08:55:28;98042.50;;;15.73;92.94
80333;BME280;69652;51.864;-2.246;2023-10-19T08:57:53;98048.34;;;15.75;92.63
80333;BME280;69652;51.864;-2.246;2023-10-19T09:00:19;98048.31;;;15.79;92.49
80333;BME280;69652;51.864;-2.246;2023-10-19T09:02:46;98043.59;;;15.83;92.32
80333;BME280;69652;51.864;-2.246;2023-10-19T09:05:12;98039.25;;;15.85;91.59
80333;BME280;69652;51.864;-2.246;2023-10-19T09:07:53;98052.94;;;15.89;91.88
80333;BME280;69652;51.864;-2.246;2023-10-19T09:10:22;98050.56;;;15.91;92.07
80333;BME280;69652;51.864;-2.246;2023-10-19T09:13:08;98045.81;;;15.99;91.59
80333;BME280;69652;51.864;-2.246;2023-10-19T09:15:38;98053.16;;;16.05;90.85
80333;BME280;69652;51.864;-2.246;2023-10-19T09:18:21;98061.31;;;16.16;91.02
80333;BME280;69652;51.864;-2.246;2023-10-19T09:20:48;98046.72;;;16.26;89.58
80333;BME280;69652;51.864;-2.246;2023-10-19T09:23:34;98045.44;;;16.38;89.88
80333;BME280;69652;51.864;-2.246;2023-10-19T09:26:01;98041.31;;;16.56;88.62
80333;BME280;69652;51.864;-2.246;2023-10-19T09:28:31;98050.22;;;16.68;87.33
80333;BME280;69652;51.864;-2.246;2023-10-19T09:31:00;98040.06;;;16.65;86.77
80333;BME280;69652;51.864;-2.246;2023-10-19T09:33:26;98038.97;;;16.58;86.09
80333;BME280;69652;51.864;-2.246;2023-10-19T09:35:52;98037.00;;;16.63;86.73
80333;BME280;69652;51.864;-2.246;2023-10-19T09:38:20;98044.75;;;16.68;86.27
80333;BME280;69652;51.864;-2.246;2023-10-19T09:40:53;98038.47;;;16.71;86.70
80333;BME280;69652;51.864;-2.246;2023-10-19T09:43:38;98045.38;;;16.82;86.49
80333;BME280;69652;51.864;-2.246;2023-10-19T09:46:09;98045.31;;;16.86;85.70
80333;BME280;69652;51.864;-2.246;2023-10-19T09:48:42;98052.78;;;16.85;84.93
80333;BME280;69652;51.864;-2.246;2023-10-19T09:51:10;98042.53;;;16.89;84.89
80333;BME280;69652;51.864;-2.246;2023-10-19T09:53:36;98034.94;;;17.01;84.57
80333;BME280;69652;51.864;-2.246;2023-10-19T09:56:04;98037.06;;;17.20;84.03
80333;BME280;69652;51.864;-2.246;2023-10-19T09:58:44;98048.94;;;17.37;83.43
80333;BME280;69652;51.864;-2.246;2023-10-19T10:01:10;98042.22;;;17.41;82.89
80333;BME280;69652;51.864;-2.246;2023-10-19T10:03:45;98047.06;;;17.33;83.09
80333;BME280;69652;51.864;-2.246;2023-10-19T10:06:11;98053.41;;;17.27;84.26
80333;BME280;69652;51.864;-2.246;2023-10-19T10:08:40;98051.94;;;17.19;83.68
80333;BME280;69652;51.864;-2.246;2023-10-19T10:11:27;98052.66;;;17.23;83.51
80333;BME280;69652;51.864;-2.246;2023-10-19T10:13:53;98054.38;;;17.40;83.88
80333;BME280;69652;51.864;-2.246;2023-10-19T10:16:28;98053.00;;;17.55;82.29
80333;BME280;69652;51.864;-2.246;2023-10-19T10:18:59;98049.31;;;17.69;82.92
80333;BME280;69652;51.864;-2.246;2023-10-19T10:21:29;98045.78;;;18.15;80.98
80333;BME280;69652;51.864;-2.246;2023-10-19T10:23:57;98042.75;;;18.53;79.73
80333;BME280;69652;51.864;-2.246;2023-10-19T10:26:27;98046.38;;;18.69;78.81
80333;BME280;69652;51.864;-2.246;2023-10-19T10:29:08;98049.94;;;18.47;79.63
80333;BME280;69652;51.864;-2.246;2023-10-19T10:31:35;98038.16;;;18.46;79.96
80333;BME280;69652;51.864;-2.246;2023-10-19T10:34:08;98044.09;;;18.21;80.05
80333;BME280;69652;51.864;-2.246;2023-10-19T10:37:12;98042.78;;;18.06;80.27
80333;BME280;69652;51.864;-2.246;2023-10-19T10:39:40;98042.13;;;18.22;80.06
80333;BME280;69652;51.864;-2.246;2023-10-19T10:42:08;98035.19;;;18.60;77.99
80333;BME280;69652;51.864;-2.246;2023-10-19T10:44:38;98027.91;;;18.50;79.10
80333;BME280;69652;51.864;-2.246;2023-10-19T10:47:15;98029.28;;;18.38;79.49
80333;BME280;69652;51.864;-2.246;2023-10-19T10:49:50;98028.56;;;18.15;79.58
80333;BME280;69652;51.864;-2.246;2023-10-19T10:55:07;98031.91;;;18.02;79.64
80333;BME280;69652;51.864;-2.246;2023-10-19T10:57:33;98043.34;;;18.21;79.73
80333;BME280;69652;51.864;-2.246;2023-10-19T11:00:10;98035.63;;;18.35;79.61
80333;BME280;69652;51.864;-2.246;2023-10-19T11:02:41;98032.47;;;18.37;78.49
80333;BME280;69652;51.864;-2.246;2023-10-19T11:05:15;98030.97;;;18.32;78.87
80333;BME280;69652;51.864;-2.246;2023-10-19T11:08:02;98036.88;;;18.31;78.22
80333;BME280;69652;51.864;-2.246;2023-10-19T11:10:28;98035.50;;;18.19;79.05
80333;BME280;69652;51.864;-2.246;2023-10-19T11:13:05;98037.06;;;18.20;78.20
80333;BME280;69652;51.864;-2.246;2023-10-19T11:15:31;98026.63;;;18.12;79.16
80333;BME280;69652;51.864;-2.246;2023-10-19T11:17:58;98021.88;;;18.16;79.07
80333;BME280;69652;51.864;-2.246;2023-10-19T11:20:25;98029.56;;;18.44;76.91
80333;BME280;69652;51.864;-2.246;2023-10-19T11:22:53;98019.59;;;18.93;76.61
80333;BME280;69652;51.864;-2.246;2023-10-19T11:25:22;98017.16;;;19.15;75.04
80333;BME280;69652;51.864;-2.246;2023-10-19T11:27:48;98011.19;;;19.36;75.16
80333;BME280;69652;51.864;-2.246;2023-10-19T11:30:22;98011.63;;;19.35;75.09
80333;BME280;69652;51.864;-2.246;2023-10-19T11:32:48;98005.84;;;19.29;74.66
80333;BME280;69652;51.864;-2.246;2023-10-19T11:35:13;97998.63;;;19.35;75.49
80333;BME280;69652;51.864;-2.246;2023-10-19T11:37:46;98003.34;;;19.19;74.58
80333;BME280;69652;51.864;-2.246;2023-10-19T11:40:11;98004.91;;;19.20;75.63
80333;BME280;69652;51.864;-2.246;2023-10-19T11:42:37;98003.88;;;19.30;75.56
80333;BME280;69652;51.864;-2.246;2023-10-19T11:45:03;97994.97;;;19.42;74.56
80333;BME280;69652;51.864;-2.246;2023-10-19T11:47:28;98005.19;;;19.41;75.33
80333;BME280;69652;51.864;-2.246;2023-10-19T11:49:54;98001.44;;;19.16;75.16
80333;BME280;69652;51.864;-2.246;2023-10-19T11:52:19;97990.13;;;18.94;76.06
80333;BME280;69652;51.864;-2.246;2023-10-19T11:54:45;97998.81;;;19.28;75.39
80333;BME280;69652;51.864;-2.246;2023-10-19T11:57:10;97983.09;;;19.45;74.90
80333;BME280;69652;51.864;-2.246;2023-10-19T11:59:37;97986.25;;;19.27;75.22
80333;BME280;69652;51.864;-2.246;2023-10-19T12:02:02;97982.84;;;19.72;73.41
80333;BME280;69652;51.864;-2.246;2023-10-19T12:04:29;97993.50;;;19.86;73.11
80333;BME280;69652;51.864;-2.246;2023-10-19T12:06:54;97973.84;;;19.55;72.56
80333;BME280;69652;51.864;-2.246;2023-10-19T12:09:20;97980.75;;;19.27;74.15
80333;BME280;69652;51.864;-2.246;2023-10-19T12:11:50;97979.84;;;18.98;75.38
80333;BME280;69652;51.864;-2.246;2023-10-19T12:14:18;97978.28;;;18.61;76.65
80333;BME280;69652;51.864;-2.246;2023-10-19T12:16:44;97976.28;;;18.61;77.84
80333;BME280;69652;51.864;-2.246;2023-10-19T12:19:10;97970.63;;;18.88;77.49
80333;BME280;69652;51.864;-2.246;2023-10-19T12:21:36;97967.88;;;19.89;74.97
80333;BME280;69652;51.864;-2.246;2023-10-19T12:24:03;97960.34;;;21.43;69.05
80333;BME280;69652;51.864;-2.246;2023-10-19T12:26:30;97966.22;;;20.66;71.08
80333;BME280;69652;51.864;-2.246;2023-10-19T12:28:55;97951.59;;;20.81;71.29
80333;BME280;69652;51.864;-2.246;2023-10-19T12:31:21;97953.06;;;21.96;66.84
80333;BME280;69652;51.864;-2.246;2023-10-19T12:33:48;97940.53;;;21.83;68.66
80333;BME280;69652;51.864;-2.246;2023-10-19T12:36:14;97927.19;;;24.43;60.38
80333;BME280;69652;51.864;-2.246;2023-10-19T12:38:58;97925.66;;;23.97;60.88
80333;BME280;69652;51.864;-2.246;2023-10-19T12:41:24;97940.00;;;22.10;63.77
80333;BME280;69652;51.864;-2.246;2023-10-19T12:43:50;97940.44;;;20.72;70.64
80333;BME280;69652;51.864;-2.246;2023-10-19T12:46:23;97935.56;;;19.77;73.26
80333;BME280;69652;51.864;-2.246;2023-10-19T12:48:53;97937.25;;;19.38;73.56
80333;BME280;69652;51.864;-2.246;2023-10-19T12:51:22;97926.66;;;19.04;74.66
80333;BME280;69652;51.864;-2.246;2023-10-19T12:53:52;97926.38;;;19.51;73.68
80333;BME280;69652;51.864;-2.246;2023-10-19T12:56:21;97921.44;;;19.91;72.58
80333;BME280;69652;51.864;-2.246;2023-10-19T12:58:50;97929.50;;;19.98;72.15
80333;BME280;69652;51.864;-2.246;2023-10-19T13:01:16;97922.44;;;20.26;71.34
80333;BME280;69652;51.864;-2.246;2023-10-19T13:03:43;97924.28;;;22.19;65.95
80333;BME280;69652;51.864;-2.246;2023-10-19T13:06:13;97913.94;;;23.56;60.04
80333;BME280;69652;51.864;-2.246;2023-10-19T13:08:39;97915.66;;;25.05;56.60